createdAt,value
2018-06-05T00:01:33.690Z,17.40
2018-06-05T00:04:03.481Z,17.07
2018-06-05T00:06:31.734Z,19.07
2018-06-05T00:08:59.798Z,16.10
2018-06-05T00:11:27.928Z,19.10
2018-06-05T00:13:57.482Z,18.27
2018-06-05T00:16:27.436Z,17.53
2018-06-05T00:18:56.641Z,20.00
2018-06-05T00:21:25.696Z,19.30
2018-06-05T00:23:55.396Z,17.97
2018-06-05T00:26:25.792Z,20.20
2018-06-05T00:28:55.117Z,18.60
2018-06-05T00:31:24.176Z,18.47
2018-06-05T00:33:53.252Z,17.43
2018-06-05T00:36:23.274Z,17.77
2018-06-05T00:38:52.203Z,19.80
2018-06-05T00:41:21.400Z,18.57
2018-06-05T00:43:50.669Z,18.90
2018-06-05T00:46:21.134Z,19.30
2018-06-05T00:48:52.983Z,19.07
2018-06-05T00:51:27.440Z,18.70
2018-06-05T00:53:58.191Z,21.47
2018-06-05T00:56:30.395Z,17.93
2018-06-05T00:58:59.814Z,17.87
2018-06-05T01:01:29.351Z,19.53
2018-06-05T01:03:59.490Z,19.10
2018-06-05T01:06:29.420Z,19.33
2018-06-05T01:08:57.510Z,19.13
2018-06-05T01:11:26.746Z,20.17
2018-06-05T01:13:56.502Z,18.43
2018-06-05T01:16:26.534Z,19.00
2018-06-05T01:18:55.842Z,18.70
2018-06-05T01:21:27.494Z,19.10
2018-06-05T01:23:57.110Z,18.83
2018-06-05T01:26:28.508Z,21.90
2018-06-05T01:28:59.287Z,20.40
2018-06-05T01:31:28.836Z,21.30
2018-06-05T01:33:59.133Z,20.27
2018-06-05T01:36:28.486Z,19.60
2018-06-05T01:38:58.216Z,21.20
2018-06-05T01:41:26.966Z,19.87
2018-06-05T01:43:59.018Z,21.60
2018-06-05T01:46:30.026Z,20.53
2018-06-05T01:49:02.369Z,21.00
2018-06-05T01:51:34.414Z,19.93
2018-06-05T01:54:09.343Z,21.00
2018-06-05T01:56:42.105Z,21.83
2018-06-05T01:59:14.832Z,21.17
2018-06-05T02:01:46.633Z,21.17
2018-06-05T02:04:18.069Z,22.33
2018-06-05T02:06:47.591Z,20.13
2018-06-05T02:09:18.142Z,19.40
2018-06-05T02:11:48.193Z,19.67
2018-06-05T02:14:18.893Z,20.90
2018-06-05T02:16:50.865Z,19.27
2018-06-05T02:19:21.936Z,20.60
2018-06-05T02:21:51.269Z,19.33
2018-06-05T02:24:22.104Z,19.63
2018-06-05T02:26:52.257Z,18.90
2018-06-05T02:29:22.982Z,20.47
2018-06-05T02:31:52.245Z,18.57
2018-06-05T02:34:22.183Z,19.23
2018-06-05T02:36:52.163Z,19.33
2018-06-05T02:39:26.286Z,18.13
2018-06-05T02:51:35.726Z,14.77
2018-06-05T02:54:07.098Z,14.70
2018-06-05T03:06:18.249Z,13.33
2018-06-05T03:08:47.050Z,14.00
2018-06-05T03:11:16.228Z,16.03
2018-06-05T03:13:44.599Z,14.70
2018-06-05T03:16:15.282Z,14.50
2018-06-05T03:18:45.954Z,14.90
2018-06-05T03:21:17.582Z,14.80
2018-06-05T03:23:47.262Z,14.03
2018-06-05T03:26:17.544Z,14.60
2018-06-05T03:28:49.003Z,14.10
2018-06-05T03:31:20.158Z,15.00
2018-06-05T03:33:50.689Z,15.53
2018-06-05T03:36:22.284Z,16.20
2018-06-05T03:38:53.818Z,14.30
2018-06-05T03:41:23.786Z,14.70
2018-06-05T03:43:53.350Z,15.30
2018-06-05T03:46:24.834Z,14.20
2018-06-05T03:48:54.377Z,15.33
2018-06-05T03:51:23.599Z,15.87
2018-06-05T03:53:54.025Z,16.30
2018-06-05T03:56:29.171Z,16.03
2018-06-05T03:58:59.885Z,15.63
2018-06-05T04:01:29.940Z,16.03
2018-06-05T04:04:01.922Z,15.43
2018-06-05T04:06:34.412Z,15.27
2018-06-05T04:09:04.946Z,15.90
2018-06-05T04:11:33.869Z,15.80
2018-06-05T04:14:03.984Z,17.43
2018-06-05T04:16:37.659Z,17.57
2018-06-05T04:19:10.704Z,16.93
2018-06-05T04:21:42.634Z,15.03
2018-06-05T04:24:15.424Z,18.30
2018-06-05T04:26:48.569Z,16.70
2018-06-05T04:29:21.236Z,16.70
2018-06-05T04:31:54.154Z,14.50
2018-06-05T04:34:26.838Z,15.57
2018-06-05T04:36:57.104Z,15.50
2018-06-05T04:55:39.183Z,14.17
2018-06-05T04:58:12.227Z,16.10
2018-06-05T05:00:44.622Z,16.60
2018-06-05T05:03:16.596Z,16.80
2018-06-05T05:05:49.412Z,15.53
2018-06-05T05:08:21.767Z,14.80
2018-06-05T05:10:53.665Z,16.37
2018-06-05T05:13:26.956Z,16.23
2018-06-05T05:32:07.627Z,15.83
2018-06-05T05:34:41.574Z,18.17
2018-06-05T05:37:16.098Z,16.53
2018-06-05T05:39:46.074Z,17.00
2018-06-05T05:42:17.903Z,17.37
2018-06-05T05:44:52.910Z,17.50
2018-06-05T05:47:25.018Z,17.50
2018-06-05T05:49:57.385Z,18.37
2018-06-05T05:52:29.476Z,17.50
2018-06-05T05:55:00.167Z,17.30
2018-06-05T05:57:32.807Z,18.47
2018-06-05T06:00:04.598Z,16.90
2018-06-05T06:02:35.737Z,17.43
2018-06-05T06:05:07.284Z,18.27
2018-06-05T06:07:39.393Z,16.83
2018-06-05T06:10:12.714Z,16.17
2018-06-05T06:12:46.933Z,17.50
2018-06-05T06:15:19.961Z,18.37
2018-06-05T06:17:51.736Z,15.20
2018-06-05T06:20:24.377Z,18.77
2018-06-05T06:22:56.038Z,18.27
2018-06-05T06:25:29.759Z,19.30
2018-06-05T06:28:01.238Z,18.80
2018-06-05T06:30:34.492Z,18.73
2018-06-05T06:33:06.304Z,16.80
2018-06-05T06:35:40.573Z,18.33
2018-06-05T06:38:13.051Z,17.43
2018-06-05T06:40:44.205Z,17.13
2018-06-05T06:43:17.401Z,18.47
2018-06-05T06:45:49.019Z,17.00
2018-06-05T06:48:24.149Z,18.50
2018-06-05T06:50:54.799Z,19.07
2018-06-05T06:53:26.108Z,18.00
2018-06-05T06:55:58.712Z,17.17
2018-06-05T06:58:29.466Z,18.17
2018-06-05T07:01:03.689Z,19.30
2018-06-05T07:03:34.023Z,17.67
2018-06-05T07:06:05.139Z,18.77
2018-06-05T07:08:37.445Z,17.67
2018-06-05T07:11:12.211Z,16.10
2018-06-05T07:13:44.085Z,16.90
2018-06-05T07:16:15.671Z,16.97
2018-06-05T07:18:47.945Z,16.07
2018-06-05T07:21:27.720Z,17.67
2018-06-05T07:36:57.636Z,16.50
2018-06-05T07:39:30.055Z,16.70
2018-06-05T07:42:01.603Z,15.83
2018-06-05T07:44:32.890Z,20.00
2018-06-05T07:47:08.160Z,17.70
2018-06-05T07:49:40.184Z,18.13
2018-06-05T07:52:11.122Z,16.97
2018-06-05T07:54:41.977Z,15.50
2018-06-05T07:57:14.963Z,17.17
2018-06-05T08:12:47.523Z,14.47
2018-06-05T08:15:21.652Z,16.17
2018-06-05T08:17:55.051Z,16.67
2018-06-05T08:20:27.344Z,18.97
2018-06-05T08:23:00.057Z,16.93
2018-06-05T08:25:32.203Z,16.20
2018-06-05T08:28:03.211Z,15.20
2018-06-05T08:30:34.104Z,16.23
2018-06-05T08:33:06.715Z,16.70
2018-06-05T08:35:39.818Z,17.53
2018-06-05T08:38:12.066Z,15.63
2018-06-05T08:40:43.989Z,15.97
2018-06-05T08:43:15.323Z,16.40
2018-06-05T08:45:49.753Z,15.23
2018-06-05T08:48:25.265Z,15.77
2018-06-05T08:51:00.139Z,15.80
2018-06-05T08:53:33.356Z,14.43
2018-06-05T08:56:07.454Z,13.70
2018-06-05T08:58:39.392Z,12.67
2018-06-05T09:01:16.246Z,13.00
2018-06-05T09:16:47.050Z,13.20
2018-06-05T09:19:17.606Z,13.40
2018-06-05T09:21:50.724Z,14.57
2018-06-05T09:24:23.592Z,14.80
2018-06-05T09:26:54.747Z,15.63
2018-06-05T09:29:27.580Z,14.10
2018-06-05T09:31:59.555Z,13.50
2018-06-05T09:34:32.415Z,13.43
2018-06-05T09:37:04.411Z,14.00
2018-06-05T09:39:37.559Z,13.63
2018-06-05T09:42:10.024Z,15.10
2018-06-05T09:44:41.047Z,13.23
2018-06-05T10:00:08.915Z,12.23
2018-06-05T10:02:40.825Z,14.40
2018-06-05T10:05:15.724Z,14.47
2018-06-05T10:07:50.045Z,13.77
2018-06-05T10:10:21.773Z,14.60
2018-06-05T10:12:56.209Z,13.77
2018-06-05T10:15:28.968Z,13.70
2018-06-05T10:18:01.105Z,13.80
2018-06-05T10:20:35.476Z,14.47
2018-06-05T10:23:08.710Z,11.73
2018-06-05T10:25:41.896Z,14.50
2018-06-05T10:28:14.129Z,15.70
2018-06-05T10:30:46.543Z,16.40
2018-06-05T10:33:18.042Z,14.37
2018-06-05T10:35:51.923Z,14.97
2018-06-05T10:38:25.129Z,15.33
2018-06-05T10:40:57.070Z,16.03
2018-06-05T10:43:31.976Z,15.60
2018-06-05T10:46:05.126Z,16.23
2018-06-05T10:48:38.539Z,14.47
2018-06-05T10:51:17.299Z,14.57
2018-06-05T10:53:48.801Z,14.70
2018-06-05T10:56:23.202Z,15.33
2018-06-05T10:59:01.486Z,13.90
2018-06-05T11:01:35.054Z,15.40
2018-06-05T11:04:10.316Z,15.40
2018-06-05T11:06:43.244Z,14.10
2018-06-05T11:09:16.338Z,14.13
2018-06-05T11:11:48.988Z,12.70
2018-06-05T11:14:23.139Z,14.57
2018-06-05T11:42:58.333Z,12.57
2018-06-05T11:45:33.805Z,13.20
2018-06-05T11:48:10.609Z,12.73
2018-06-05T11:50:42.169Z,13.20
2018-06-05T11:53:13.300Z,13.20
2018-06-05T11:55:46.280Z,13.57
2018-06-05T11:58:21.037Z,13.23
2018-06-05T12:00:52.743Z,12.47
2018-06-05T12:03:24.199Z,12.00
2018-06-05T12:05:56.540Z,11.73
2018-06-05T12:08:29.272Z,11.60
2018-06-05T12:11:02.025Z,13.20
2018-06-05T12:13:32.622Z,12.10
2018-06-05T12:16:05.121Z,11.63
2018-06-05T12:18:40.881Z,11.03
2018-06-05T12:21:15.516Z,10.00
2018-06-05T12:23:46.322Z,11.37
2018-06-05T12:26:17.366Z,12.47
2018-06-05T12:28:49.699Z,11.37
2018-06-05T12:31:23.098Z,10.47
2018-06-05T12:33:57.628Z,11.40
2018-06-05T12:36:30.488Z,10.63
2018-06-05T12:39:02.084Z,10.20
2018-06-05T12:41:33.018Z,10.53
2018-06-05T12:44:03.671Z,11.03
2018-06-05T12:46:35.059Z,11.30
2018-06-05T12:49:08.926Z,11.70
2018-06-05T12:51:41.115Z,13.43
2018-06-05T12:54:12.622Z,12.13
2018-06-05T12:56:44.929Z,12.33
2018-06-05T12:59:16.928Z,10.07
2018-06-05T13:01:48.036Z,12.87
2018-06-05T13:04:19.083Z,13.00
2018-06-05T13:06:52.753Z,11.03
2018-06-05T13:09:24.721Z,11.90
2018-06-05T13:11:55.231Z,11.93
2018-06-05T13:14:26.960Z,9.67
2018-06-05T13:16:58.789Z,9.17
2018-06-05T13:19:29.858Z,7.77
2018-06-05T13:22:00.776Z,10.10
2018-06-05T13:24:33.575Z,8.10
2018-06-05T13:27:10.503Z,9.80
2018-06-05T13:29:44.396Z,11.43
2018-06-05T13:32:19.101Z,10.53
2018-06-05T13:34:51.522Z,8.90
2018-06-05T13:37:22.150Z,8.27
2018-06-05T13:39:56.918Z,10.17
2018-06-05T13:42:33.303Z,8.90
2018-06-05T13:45:07.267Z,10.27
2018-06-05T13:47:39.832Z,10.57
2018-06-05T13:50:15.228Z,9.97
2018-06-05T13:52:49.683Z,9.20
2018-06-05T13:55:24.238Z,9.10
2018-06-05T13:57:56.628Z,10.70
2018-06-05T14:00:28.610Z,10.67
2018-06-05T14:03:01.643Z,8.93
2018-06-05T14:05:34.626Z,9.50
2018-06-05T14:08:05.937Z,8.50
2018-06-05T14:10:37.841Z,9.73
2018-06-05T14:13:09.886Z,9.20
2018-06-05T14:15:40.323Z,8.90
2018-06-05T14:18:11.474Z,8.60
2018-06-05T14:20:45.410Z,8.80
2018-06-05T14:23:18.652Z,8.00
2018-06-05T14:25:51.483Z,9.50
2018-06-05T14:28:25.731Z,8.70
2018-06-05T14:57:26.437Z,8.07
2018-06-05T14:59:58.448Z,7.90
2018-06-05T15:02:32.101Z,7.77
2018-06-05T15:05:05.212Z,6.30
2018-06-05T15:07:37.309Z,7.90
2018-06-05T15:10:09.598Z,7.70
2018-06-05T15:12:41.268Z,8.37
2018-06-05T15:31:25.158Z,7.17
2018-06-05T15:33:55.223Z,7.90
2018-06-05T15:36:32.761Z,6.53
2018-06-05T15:39:06.186Z,7.60
2018-06-05T15:44:32.475Z,8.60
2018-06-05T15:47:01.471Z,8.87
2018-06-05T15:49:35.298Z,8.10
2018-06-05T15:52:08.869Z,8.90
2018-06-05T15:54:37.229Z,8.50
2018-06-05T15:57:08.451Z,8.90
2018-06-05T15:59:37.904Z,8.00
2018-06-05T16:14:57.298Z,8.03
2018-06-05T16:17:26.047Z,10.63
2018-06-05T16:19:55.556Z,11.20
2018-06-05T16:22:29.546Z,11.10
2018-06-05T16:37:48.710Z,11.90
2018-06-05T16:40:19.027Z,10.83
2018-06-05T16:42:54.082Z,11.70
2018-06-05T16:45:23.294Z,11.80
2018-06-05T16:47:53.450Z,12.70
2018-06-05T16:50:24.562Z,12.63
2018-06-05T16:53:00.149Z,12.30
2018-06-05T16:55:31.233Z,14.70
2018-06-05T16:58:00.422Z,13.13
2018-06-05T17:10:13.718Z,12.20
2018-06-05T17:22:23.937Z,14.60
2018-06-05T17:24:53.587Z,15.10
2018-06-05T17:27:23.378Z,14.40
2018-06-05T17:29:53.617Z,17.37
2018-06-05T17:32:28.178Z,15.37
2018-06-05T17:44:42.128Z,14.53
2018-06-05T17:59:54.303Z,15.77
2018-06-05T18:02:26.866Z,17.67
2018-06-05T18:07:38.495Z,15.13
2018-06-05T18:10:12.079Z,17.53
2018-06-05T18:12:46.776Z,14.83
2018-06-05T18:15:20.782Z,17.07
2018-06-05T18:17:58.623Z,16.93
2018-06-05T18:20:32.500Z,17.37
2018-06-05T18:23:15.714Z,16.43
2018-06-05T18:25:51.193Z,16.50
2018-06-05T18:31:10.472Z,16.60
2018-06-05T18:33:44.633Z,17.20
2018-06-05T18:36:23.096Z,14.70
2018-06-05T18:48:32.734Z,17.00
2018-06-05T18:51:08.127Z,16.40
2018-06-05T18:53:41.570Z,17.47
2018-06-05T19:11:47.136Z,17.63
2018-06-05T19:14:22.904Z,17.07
2018-06-05T19:16:54.141Z,17.17
2018-06-05T19:19:42.551Z,16.00
2018-06-05T19:32:01.806Z,16.47
2018-06-05T19:34:40.858Z,17.77
2018-06-05T19:50:06.368Z,14.93
2018-06-05T19:52:35.253Z,15.50
2018-06-05T19:55:04.329Z,15.47
2018-06-05T19:57:32.758Z,16.00
2018-06-05T20:00:01.513Z,14.57
2018-06-05T20:02:30.943Z,15.83
2018-06-05T20:04:59.368Z,17.60
2018-06-05T20:07:27.644Z,16.67
2018-06-05T20:09:56.107Z,16.80
2018-06-05T20:12:25.401Z,16.60
2018-06-05T20:14:54.648Z,17.93
2018-06-05T20:17:23.362Z,18.17
2018-06-05T20:19:51.905Z,16.63
2018-06-05T20:22:20.493Z,17.97
2018-06-05T20:24:48.977Z,18.00
2018-06-05T20:27:17.401Z,17.83
2018-06-05T20:29:45.873Z,18.37
2018-06-05T20:32:14.950Z,18.33
2018-06-05T20:34:43.476Z,17.37
2018-06-05T20:37:12.842Z,18.50
2018-06-05T20:39:42.966Z,18.93
2018-06-05T20:42:11.308Z,17.97
2018-06-05T20:44:41.137Z,17.77
2018-06-05T20:47:09.850Z,17.30
2018-06-05T20:49:38.277Z,18.87
2018-06-05T20:52:06.712Z,18.80
2018-06-05T20:54:35.068Z,19.00
2018-06-05T20:57:03.407Z,19.80
2018-06-05T20:59:31.864Z,18.60
2018-06-05T21:02:00.454Z,20.23
2018-06-05T21:04:29.149Z,20.20
2018-06-05T21:06:58.546Z,18.67
2018-06-05T21:09:27.101Z,20.87
2018-06-05T21:11:56.292Z,18.77
2018-06-05T21:14:24.865Z,19.67
2018-06-05T21:16:53.352Z,19.90
2018-06-05T21:19:21.714Z,20.47
2018-06-05T21:21:49.859Z,19.00
2018-06-05T21:24:18.218Z,20.53
2018-06-05T21:26:46.687Z,18.90
2018-06-05T21:29:14.936Z,18.50
2018-06-05T21:31:43.073Z,20.67
2018-06-05T21:34:11.266Z,20.97
2018-06-05T21:36:39.466Z,19.97
2018-06-05T21:39:08.152Z,17.87
2018-06-05T21:41:36.624Z,20.47
2018-06-05T21:44:04.753Z,16.87
2018-06-05T21:46:32.934Z,19.40
2018-06-05T21:49:01.068Z,17.70
2018-06-05T21:51:29.218Z,20.10
2018-06-05T21:53:57.378Z,18.47
2018-06-05T21:56:25.653Z,18.07
2018-06-05T21:58:53.652Z,16.80
2018-06-05T22:01:21.683Z,17.23
2018-06-05T22:03:49.672Z,17.33
2018-06-05T22:06:17.997Z,15.40
2018-06-05T22:08:46.849Z,14.80
2018-06-05T22:11:14.843Z,13.70
2018-06-05T22:13:42.849Z,13.87
2018-06-05T22:16:10.879Z,15.57
2018-06-05T22:18:38.891Z,14.50
2018-06-05T22:21:06.892Z,13.23
2018-06-05T22:23:34.922Z,14.03
2018-06-05T22:26:02.966Z,13.40
2018-06-05T22:28:30.996Z,13.57
2018-06-05T22:30:59.632Z,13.73
2018-06-05T22:33:28.569Z,14.43
2018-06-05T22:35:57.461Z,15.67
2018-06-05T22:38:25.520Z,13.60
2018-06-05T22:40:53.554Z,12.40
2018-06-05T22:43:21.602Z,12.70
2018-06-05T22:45:49.621Z,13.47
2018-06-05T22:48:17.640Z,13.07
2018-06-05T22:50:45.747Z,11.33
2018-06-05T22:53:13.766Z,22.40
2018-06-05T22:55:41.780Z,12.20
2018-06-05T22:58:10.314Z,13.13
2018-06-05T23:00:38.396Z,12.37
2018-06-05T23:03:06.410Z,11.70
2018-06-05T23:05:34.441Z,12.60
2018-06-05T23:08:02.505Z,12.90
2018-06-05T23:10:30.525Z,12.23
2018-06-05T23:12:58.550Z,12.10
2018-06-05T23:15:26.564Z,12.10
2018-06-05T23:17:54.553Z,13.30
2018-06-05T23:20:22.597Z,12.60
2018-06-05T23:22:50.639Z,14.23
2018-06-05T23:25:18.639Z,11.30
2018-06-05T23:27:46.968Z,13.50
2018-06-05T23:30:14.993Z,13.50
2018-06-05T23:32:43.205Z,12.93
2018-06-05T23:35:11.495Z,13.63
2018-06-05T23:37:39.655Z,14.10
2018-06-05T23:40:07.781Z,13.23
2018-06-05T23:42:35.789Z,13.67
2018-06-05T23:45:03.842Z,14.63
2018-06-05T23:47:32.231Z,12.07
2018-06-05T23:50:00.281Z,16.33
2018-06-05T23:52:28.313Z,13.90
2018-06-05T23:54:56.324Z,14.17
2018-06-05T23:57:24.330Z,15.77
2018-06-05T23:59:52.491Z,14.77
